createdAt,value
2018-02-12T00:00:27.783Z,72.90
2018-02-12T00:02:55.356Z,72.90
2018-02-12T00:05:22.923Z,73.10
2018-02-12T00:07:50.453Z,73.10
2018-02-12T00:10:19.338Z,73.20
2018-02-12T00:12:47.963Z,73.10
2018-02-12T00:15:15.543Z,73.20
2018-02-12T00:17:43.364Z,73.10
2018-02-12T00:20:10.884Z,73.10
2018-02-12T00:22:38.431Z,73.20
2018-02-12T00:25:06.758Z,73.20
2018-02-12T00:27:34.333Z,73.20
2018-02-12T00:30:01.875Z,73.10
2018-02-12T00:32:29.414Z,72.90
2018-02-12T00:34:57.139Z,73.00
2018-02-12T00:37:24.675Z,73.10
2018-02-12T00:39:52.294Z,73.10
2018-02-12T00:42:19.849Z,73.50
2018-02-12T00:44:47.433Z,72.90
2018-02-12T00:47:15.005Z,73.00
2018-02-12T00:49:42.567Z,73.00
2018-02-12T00:52:10.234Z,73.00
2018-02-12T00:54:38.008Z,73.00
2018-02-12T00:57:06.468Z,73.10
2018-02-12T00:59:33.987Z,73.10
2018-02-12T01:02:01.535Z,73.10
2018-02-12T01:04:29.810Z,73.10
2018-02-12T01:06:58.122Z,73.80
2018-02-12T01:09:25.639Z,73.10
2018-02-12T01:11:53.169Z,73.10
2018-02-12T01:14:20.698Z,73.10
2018-02-12T01:16:48.304Z,72.90
2018-02-12T01:19:16.571Z,73.00
2018-02-12T01:21:44.908Z,72.40
2018-02-12T01:24:12.458Z,72.80
2018-02-12T01:26:40.053Z,72.90
2018-02-12T01:29:07.607Z,73.00
2018-02-12T01:31:35.144Z,72.90
2018-02-12T01:34:03.448Z,72.80
2018-02-12T01:36:31.770Z,72.90
2018-02-12T01:38:59.281Z,72.80
2018-02-12T01:41:27.568Z,73.00
2018-02-12T01:43:55.061Z,73.00
2018-02-12T01:46:23.355Z,73.00
2018-02-12T01:48:51.616Z,72.80
2018-02-12T01:51:19.533Z,72.80
2018-02-12T01:53:47.012Z,72.80
2018-02-12T01:56:14.510Z,72.90
2018-02-12T01:58:41.994Z,72.80
2018-02-12T02:01:09.524Z,72.80
2018-02-12T02:03:37.200Z,72.70
2018-02-12T02:06:04.745Z,72.70
2018-02-12T02:08:32.994Z,72.80
2018-02-12T02:11:00.494Z,72.80
2018-02-12T02:13:27.988Z,72.70
2018-02-12T02:15:55.563Z,72.70
2018-02-12T02:18:23.191Z,72.70
2018-02-12T02:20:50.733Z,72.80
2018-02-12T02:23:18.316Z,72.70
2018-02-12T02:25:45.832Z,72.60
2018-02-12T02:28:14.097Z,72.70
2018-02-12T02:30:41.592Z,72.70
2018-02-12T02:33:09.289Z,72.80
2018-02-12T02:35:36.814Z,72.90
2018-02-12T02:38:04.367Z,72.80
2018-02-12T02:40:31.939Z,72.80
2018-02-12T02:42:59.590Z,72.80
2018-02-12T02:45:27.201Z,72.80
2018-02-12T02:47:55.135Z,72.80
2018-02-12T02:50:22.614Z,72.70
2018-02-12T02:52:50.141Z,72.60
2018-02-12T02:55:18.423Z,72.70
2018-02-12T02:57:46.700Z,72.60
2018-02-12T03:00:14.195Z,72.60
2018-02-12T03:02:42.571Z,72.50
2018-02-12T03:05:10.842Z,72.50
2018-02-12T03:07:38.477Z,72.50
2018-02-12T03:10:06.031Z,72.80
2018-02-12T03:12:33.524Z,72.60
2018-02-12T03:15:01.058Z,72.60
2018-02-12T03:17:28.585Z,72.50
2018-02-12T03:19:56.129Z,72.60
2018-02-12T03:22:23.629Z,72.50
2018-02-12T03:24:51.137Z,72.50
2018-02-12T03:27:19.397Z,72.50
2018-02-12T03:29:46.902Z,72.50
2018-02-12T03:32:14.419Z,72.70
2018-02-12T03:34:41.932Z,72.50
2018-02-12T03:37:10.204Z,72.50
2018-02-12T03:39:37.717Z,72.50
2018-02-12T03:42:05.225Z,72.30
2018-02-12T03:44:32.743Z,72.50
2018-02-12T03:47:00.278Z,72.40
2018-02-12T03:49:27.802Z,72.30
2018-02-12T03:51:55.309Z,72.30
2018-02-12T03:54:22.818Z,72.30
2018-02-12T03:56:50.350Z,72.30
2018-02-12T03:59:17.870Z,72.40
2018-02-12T04:01:45.363Z,72.30
2018-02-12T04:04:12.886Z,72.40
2018-02-12T04:06:41.141Z,72.40
2018-02-12T04:09:08.797Z,72.30
2018-02-12T04:11:36.317Z,72.30
2018-02-12T04:14:03.841Z,72.30
2018-02-12T04:16:31.334Z,72.50
2018-02-12T04:18:58.861Z,72.50
2018-02-12T04:21:26.377Z,72.30
2018-02-12T04:23:53.883Z,72.30
2018-02-12T04:26:22.166Z,72.30
2018-02-12T04:28:49.866Z,72.30
2018-02-12T04:31:17.383Z,72.50
2018-02-12T04:33:44.905Z,72.30
2018-02-12T04:36:12.636Z,72.20
2018-02-12T04:38:40.158Z,72.30
2018-02-12T04:41:07.765Z,72.40
2018-02-12T04:43:35.263Z,72.50
2018-02-12T04:46:02.841Z,72.70
2018-02-12T04:48:31.109Z,72.50
2018-02-12T04:50:59.613Z,72.30
2018-02-12T04:53:27.871Z,72.30
2018-02-12T04:55:55.399Z,72.20
2018-02-12T04:58:22.868Z,72.20
2018-02-12T05:00:50.433Z,72.00
2018-02-12T05:03:17.959Z,71.90
2018-02-12T05:05:45.562Z,72.10
2018-02-12T05:08:13.822Z,71.70
2018-02-12T05:10:41.425Z,71.70
2018-02-12T05:13:08.929Z,71.60
2018-02-12T05:15:36.604Z,71.80
2018-02-12T05:18:04.141Z,71.80
2018-02-12T05:20:32.396Z,72.10
2018-02-12T05:22:59.878Z,72.10
2018-02-12T05:25:28.157Z,72.20
2018-02-12T05:27:55.767Z,72.20
2018-02-12T05:30:23.299Z,72.10
2018-02-12T05:32:51.018Z,72.00
2018-02-12T05:35:18.512Z,71.70
2018-02-12T05:37:46.234Z,71.80
2018-02-12T05:40:13.766Z,71.70
2018-02-12T05:42:42.436Z,71.90
2018-02-12T05:45:10.044Z,71.30
2018-02-12T05:47:37.567Z,71.40
2018-02-12T05:50:06.024Z,71.40
2018-02-12T05:52:33.863Z,71.40
2018-02-12T05:55:01.404Z,71.60
2018-02-12T05:57:28.925Z,71.70
2018-02-12T05:59:56.429Z,71.70
2018-02-12T06:02:24.717Z,71.30
2018-02-12T06:04:53.020Z,72.10
2018-02-12T06:07:20.575Z,71.40
2018-02-12T06:09:48.833Z,71.50
2018-02-12T06:12:16.387Z,71.40
2018-02-12T06:14:43.861Z,71.40
2018-02-12T06:17:11.358Z,71.40
2018-02-12T06:19:38.847Z,71.20
2018-02-12T06:22:06.633Z,71.00
2018-02-12T06:24:34.917Z,70.70
2018-02-12T06:27:03.200Z,70.50
2018-02-12T06:29:31.449Z,70.60
2018-02-12T06:31:58.975Z,70.60
2018-02-12T06:34:26.473Z,70.70
2018-02-12T06:36:53.990Z,74.20
2018-02-12T06:39:22.270Z,71.00
2018-02-12T06:41:49.785Z,71.10
2018-02-12T06:44:17.362Z,70.20
2018-02-12T06:46:44.914Z,68.60
2018-02-12T06:49:13.214Z,69.00
2018-02-12T06:51:40.733Z,69.10
2018-02-12T06:54:08.258Z,69.30
2018-02-12T06:56:35.780Z,69.60
2018-02-12T06:59:04.078Z,69.70
2018-02-12T07:01:31.644Z,69.60
2018-02-12T07:03:59.177Z,69.80
2018-02-12T07:06:26.675Z,69.80
2018-02-12T07:08:54.178Z,69.70
2018-02-12T07:11:22.445Z,69.70
2018-02-12T07:13:50.092Z,69.60
2018-02-12T07:16:17.597Z,69.90
2018-02-12T07:18:45.981Z,69.80
2018-02-12T07:21:13.506Z,69.70
2018-02-12T07:23:41.044Z,69.90
2018-02-12T07:26:08.770Z,69.70
2018-02-12T07:28:36.337Z,69.80
2018-02-12T07:31:03.886Z,69.30
2018-02-12T07:33:31.553Z,69.30
2018-02-12T07:35:59.111Z,69.20
2018-02-12T07:38:27.392Z,69.30
2018-02-12T07:40:55.694Z,69.20
2018-02-12T07:43:23.329Z,69.20
2018-02-12T07:45:51.553Z,69.30
2018-02-12T07:48:19.140Z,69.90
2018-02-12T07:50:46.739Z,69.40
2018-02-12T07:53:14.244Z,69.40
2018-02-12T07:55:42.658Z,69.20
2018-02-12T07:58:10.362Z,69.10
2018-02-12T08:00:38.701Z,68.90
2018-02-12T08:03:07.035Z,68.90
2018-02-12T08:05:35.148Z,68.80
2018-02-12T08:08:02.770Z,68.10
2018-02-12T08:10:30.307Z,68.20
2018-02-12T08:12:57.887Z,68.30
2018-02-12T08:15:25.909Z,68.30
2018-02-12T08:17:53.430Z,68.00
2018-02-12T08:20:20.993Z,68.20
2018-02-12T08:22:48.590Z,68.10
2018-02-12T08:25:16.954Z,68.30
2018-02-12T08:27:44.445Z,68.30
2018-02-12T08:30:12.728Z,68.10
2018-02-12T08:32:41.796Z,68.20
2018-02-12T08:35:09.392Z,68.20
2018-02-12T08:37:37.716Z,67.50
2018-02-12T08:40:06.125Z,67.60
2018-02-12T08:42:33.764Z,67.50
2018-02-12T08:45:01.494Z,67.50
2018-02-12T08:47:29.005Z,67.40
2018-02-12T08:49:56.550Z,67.40
2018-02-12T08:52:25.186Z,66.60
2018-02-12T08:54:53.297Z,66.00
2018-02-12T08:57:21.734Z,66.00
2018-02-12T08:59:49.251Z,66.00
2018-02-12T09:02:16.863Z,65.90
2018-02-12T09:04:44.395Z,65.90
2018-02-12T09:07:11.918Z,66.10
2018-02-12T09:09:39.502Z,65.80
2018-02-12T09:12:07.462Z,66.10
2018-02-12T09:14:35.109Z,64.70
2018-02-12T09:17:02.634Z,65.00
2018-02-12T09:19:30.928Z,64.60
2018-02-12T09:21:58.504Z,64.60
2018-02-12T09:24:26.775Z,64.50
2018-02-12T09:26:55.297Z,64.40
2018-02-12T09:29:22.826Z,64.20
2018-02-12T09:31:50.404Z,64.30
2018-02-12T09:34:17.987Z,64.20
2018-02-12T09:36:46.358Z,64.40
2018-02-12T09:39:13.977Z,64.30
2018-02-12T09:41:41.503Z,64.30
2018-02-12T09:44:08.989Z,64.40
2018-02-12T09:46:36.573Z,64.40
2018-02-12T09:49:04.837Z,64.10
2018-02-12T09:51:32.378Z,64.10
2018-02-12T09:54:00.838Z,64.30
2018-02-12T09:56:28.413Z,63.90
2018-02-12T09:58:55.984Z,64.40
2018-02-12T10:01:23.539Z,63.10
2018-02-12T10:03:51.189Z,62.90
2018-02-12T10:06:18.713Z,63.20
2018-02-12T10:08:46.310Z,62.90
2018-02-12T10:11:13.839Z,62.20
2018-02-12T10:13:42.221Z,61.10
2018-02-12T10:16:10.516Z,61.00
2018-02-12T10:18:38.015Z,61.00
2018-02-12T10:21:05.552Z,60.60
2018-02-12T10:23:33.810Z,59.50
2018-02-12T10:26:02.314Z,59.30
2018-02-12T10:28:29.918Z,59.30
2018-02-12T10:30:57.437Z,59.50
2018-02-12T10:33:25.097Z,59.40
2018-02-12T10:35:52.678Z,59.40
2018-02-12T10:38:20.325Z,59.40
2018-02-12T10:40:47.893Z,59.30
2018-02-12T10:43:16.506Z,59.50
2018-02-12T10:45:44.140Z,59.50
2018-02-12T10:48:11.672Z,59.40
2018-02-12T10:50:39.334Z,59.10
2018-02-12T10:53:06.961Z,58.90
2018-02-12T10:55:34.490Z,58.50
2018-02-12T10:58:02.112Z,58.60
2018-02-12T11:00:29.642Z,58.00
2018-02-12T11:02:58.609Z,58.00
2018-02-12T11:05:26.109Z,58.20
2018-02-12T11:07:53.659Z,57.80
2018-02-12T11:10:21.183Z,57.60
2018-02-12T11:12:49.480Z,57.20
2018-02-12T11:15:17.146Z,57.20
2018-02-12T11:17:44.910Z,56.80
2018-02-12T11:20:13.193Z,56.80
2018-02-12T11:22:41.507Z,56.00
2018-02-12T11:25:09.214Z,56.10
2018-02-12T11:27:36.753Z,55.60
2018-02-12T11:30:04.266Z,55.00
2018-02-12T11:32:31.898Z,55.30
2018-02-12T11:34:59.442Z,54.80
2018-02-12T11:37:26.974Z,55.10
2018-02-12T11:39:54.475Z,55.50
2018-02-12T11:42:21.988Z,55.90
2018-02-12T11:44:49.855Z,55.90
2018-02-12T11:47:17.384Z,55.50
2018-02-12T11:49:44.933Z,55.40
2018-02-12T11:52:12.599Z,55.40
2018-02-12T11:54:40.137Z,55.30
2018-02-12T11:57:08.462Z,55.40
2018-02-12T11:59:36.025Z,55.40
2018-02-12T12:02:03.684Z,55.50
2018-02-12T12:04:31.185Z,55.30
2018-02-12T12:06:58.694Z,55.60
2018-02-12T12:09:26.972Z,55.10
2018-02-12T12:11:54.979Z,55.10
2018-02-12T12:14:23.245Z,54.40
2018-02-12T12:16:50.817Z,54.30
2018-02-12T12:19:18.362Z,53.80
2018-02-12T12:21:45.874Z,53.50
2018-02-12T12:24:13.476Z,52.90
2018-02-12T12:26:41.043Z,53.00
2018-02-12T12:29:08.605Z,52.50
2018-02-12T12:31:36.142Z,51.90
2018-02-12T12:34:03.693Z,50.40
2018-02-12T12:36:31.225Z,49.40
2018-02-12T12:38:58.770Z,47.20
2018-02-12T12:41:27.063Z,45.80
2018-02-12T12:43:55.496Z,46.00
2018-02-12T12:46:23.027Z,46.00
2018-02-12T12:48:50.564Z,45.50
2018-02-12T12:51:18.069Z,44.80
2018-02-12T12:53:45.602Z,44.20
2018-02-12T12:56:13.252Z,44.80
2018-02-12T12:58:40.749Z,43.60
2018-02-12T13:01:09.022Z,43.70
2018-02-12T13:03:36.596Z,43.60
2018-02-12T13:06:04.755Z,43.80
2018-02-12T13:08:32.410Z,44.20
2018-02-12T13:10:59.969Z,44.70
2018-02-12T13:13:28.272Z,45.10
2018-02-12T13:15:55.968Z,45.10
2018-02-12T13:18:23.493Z,45.70
2018-02-12T13:20:51.043Z,45.90
2018-02-12T13:23:18.561Z,45.80
2018-02-12T13:25:46.082Z,45.70
2018-02-12T13:28:13.585Z,45.10
2018-02-12T13:30:41.963Z,44.70
2018-02-12T13:33:10.449Z,44.30
2018-02-12T13:35:37.988Z,44.20
2018-02-12T13:38:05.540Z,44.20
2018-02-12T13:40:33.068Z,44.40
2018-02-12T13:43:00.580Z,44.70
2018-02-12T13:45:28.079Z,45.40
2018-02-12T13:47:55.602Z,45.30
2018-02-12T13:50:24.018Z,44.80
2018-02-12T13:52:51.558Z,44.80
2018-02-12T13:55:20.094Z,43.80
2018-02-12T13:57:47.611Z,43.80
2018-02-12T14:00:15.135Z,43.50
2018-02-12T14:02:42.682Z,43.70
2018-02-12T14:05:10.261Z,44.20
2018-02-12T14:07:37.963Z,44.30
2018-02-12T14:10:05.699Z,44.00
2018-02-12T14:12:33.353Z,44.50
2018-02-12T14:15:01.627Z,44.90
2018-02-12T14:17:29.889Z,45.30
2018-02-12T14:19:57.445Z,45.30
2018-02-12T14:22:25.017Z,45.60
2018-02-12T14:24:52.545Z,45.90
2018-02-12T14:27:21.231Z,46.00
2018-02-12T14:29:50.291Z,46.10
2018-02-12T14:32:18.273Z,46.10
2018-02-12T14:34:45.855Z,45.90
2018-02-12T14:37:13.363Z,45.20
2018-02-12T14:39:40.862Z,45.30
2018-02-12T14:42:08.462Z,45.40
2018-02-12T14:44:36.012Z,45.40
2018-02-12T14:47:03.510Z,45.40
2018-02-12T14:49:31.091Z,45.50
2018-02-12T14:51:58.606Z,45.60
2018-02-12T14:54:26.875Z,46.40
2018-02-12T14:56:54.384Z,46.40
2018-02-12T14:59:22.004Z,46.40
2018-02-12T15:01:50.012Z,46.90
2018-02-12T15:04:18.333Z,47.70
2018-02-12T15:06:45.930Z,47.70
2018-02-12T15:09:13.457Z,48.20
2018-02-12T15:11:40.984Z,48.40
2018-02-12T15:14:08.660Z,48.30
2018-02-12T15:16:36.163Z,48.50
2018-02-12T15:19:03.798Z,48.50
2018-02-12T15:21:31.322Z,48.80
2018-02-12T15:23:58.913Z,49.50
2018-02-12T15:26:26.514Z,49.70
2018-02-12T15:28:54.070Z,49.90
2018-02-12T15:31:22.210Z,50.00
2018-02-12T15:33:50.592Z,50.10
2018-02-12T15:36:18.896Z,50.30
2018-02-12T15:38:47.230Z,50.30
2018-02-12T15:41:14.824Z,50.20
2018-02-12T15:43:42.364Z,50.40
2018-02-12T15:46:09.906Z,50.40
2018-02-12T15:48:38.198Z,50.90
2018-02-12T15:51:06.055Z,50.90
2018-02-12T15:53:34.332Z,51.00
2018-02-12T15:56:01.983Z,51.00
2018-02-12T15:58:29.652Z,51.30
2018-02-12T16:00:57.184Z,51.40
2018-02-12T16:03:25.478Z,53.20
2018-02-12T16:05:53.791Z,56.40
2018-02-12T16:08:21.436Z,56.40
2018-02-12T16:10:49.728Z,59.10
2018-02-12T16:13:18.815Z,59.00
2018-02-12T16:15:47.377Z,58.80
2018-02-12T16:18:16.916Z,58.70
2018-02-12T16:20:46.686Z,58.60
2018-02-12T16:23:15.972Z,58.60
2018-02-12T16:25:44.250Z,58.30
2018-02-12T16:28:11.817Z,58.30
2018-02-12T16:30:39.414Z,58.50
2018-02-12T16:33:07.713Z,58.40
2018-02-12T16:35:35.421Z,58.40
2018-02-12T16:38:02.972Z,58.30
2018-02-12T16:40:30.475Z,58.10
2018-02-12T16:42:58.026Z,58.30
2018-02-12T16:45:25.550Z,58.00
2018-02-12T16:47:53.852Z,57.90
2018-02-12T16:50:21.375Z,57.90
2018-02-12T16:52:50.030Z,57.60
2018-02-12T16:55:17.851Z,57.60
2018-02-12T16:57:45.472Z,57.60
2018-02-12T17:00:13.661Z,57.80
2018-02-12T17:02:42.331Z,58.00
2018-02-12T17:05:11.121Z,58.10
2018-02-12T17:07:39.448Z,58.30
2018-02-12T17:10:08.280Z,58.30
2018-02-12T17:12:35.926Z,58.30
2018-02-12T17:15:03.444Z,58.40
2018-02-12T17:17:31.769Z,59.00
2018-02-12T17:20:00.089Z,58.80
2018-02-12T17:22:27.718Z,58.70
2018-02-12T17:24:56.079Z,59.10
2018-02-12T17:27:23.666Z,59.10
2018-02-12T17:29:51.976Z,59.10
2018-02-12T17:32:20.344Z,59.10
2018-02-12T17:34:47.911Z,59.10
2018-02-12T17:37:15.503Z,59.20
2018-02-12T17:39:43.391Z,59.20
2018-02-12T17:42:11.102Z,59.30
2018-02-12T17:44:38.606Z,59.30
2018-02-12T17:47:06.279Z,59.40
2018-02-12T17:49:33.789Z,59.40
2018-02-12T17:52:02.073Z,59.30
2018-02-12T17:54:30.347Z,59.40
2018-02-12T17:56:57.942Z,59.40
2018-02-12T17:59:25.519Z,59.50
2018-02-12T18:01:53.070Z,59.50
2018-02-12T18:04:22.261Z,59.60
2018-02-12T18:06:49.799Z,59.60
2018-02-12T18:09:17.356Z,59.50
2018-02-12T18:11:44.889Z,59.50
2018-02-12T18:14:13.323Z,59.50
2018-02-12T18:16:41.046Z,59.40
2018-02-12T18:19:09.347Z,59.70
2018-02-12T18:21:37.689Z,59.40
2018-02-12T18:24:05.573Z,59.30
2018-02-12T18:26:33.132Z,59.50
2018-02-12T18:29:00.672Z,59.50
2018-02-12T18:31:28.965Z,59.50
2018-02-12T18:33:56.729Z,59.50
2018-02-12T18:36:24.352Z,59.60
2018-02-12T18:38:52.305Z,59.70
2018-02-12T18:41:19.839Z,59.80
2018-02-12T18:43:47.394Z,60.00
2018-02-12T18:46:14.965Z,60.00
2018-02-12T18:48:43.455Z,60.10
2018-02-12T18:51:11.069Z,60.10
2018-02-12T18:53:38.960Z,60.20
2018-02-12T18:56:06.631Z,60.30
2018-02-12T18:58:34.224Z,60.50
2018-02-12T19:01:01.786Z,60.60
2018-02-12T19:03:29.356Z,60.80
2018-02-12T19:05:56.912Z,60.80
2018-02-12T19:08:24.441Z,60.80
2018-02-12T19:10:51.968Z,61.00
2018-02-12T19:13:19.747Z,61.10
2018-02-12T19:15:47.389Z,61.20
2018-02-12T19:18:14.949Z,61.20
2018-02-12T19:20:43.473Z,61.70
2018-02-12T19:23:11.248Z,61.10
2018-02-12T19:25:39.594Z,61.30
2018-02-12T19:28:07.146Z,61.40
2018-02-12T19:30:34.775Z,61.20
2018-02-12T19:33:03.177Z,61.50
2018-02-12T19:35:30.795Z,61.50
2018-02-12T19:37:58.937Z,61.40
2018-02-12T19:40:26.712Z,61.50
2018-02-12T19:42:54.374Z,61.60
2018-02-12T19:45:22.974Z,61.80
2018-02-12T19:47:50.584Z,61.70
2018-02-12T19:50:18.221Z,61.70
2018-02-12T19:52:46.678Z,61.90
2018-02-12T19:55:15.130Z,62.20
2018-02-12T19:57:42.721Z,62.10
2018-02-12T20:00:10.339Z,62.00
2018-02-12T20:02:38.662Z,62.20
2018-02-12T20:05:06.214Z,62.20
2018-02-12T20:07:34.303Z,62.10
2018-02-12T20:10:01.948Z,62.10
2018-02-12T20:12:29.859Z,62.30
2018-02-12T20:14:58.230Z,62.10
2018-02-12T20:17:26.024Z,62.00
2018-02-12T20:19:53.702Z,62.00
2018-02-12T20:22:21.382Z,61.90
2018-02-12T20:24:49.316Z,61.80
2018-02-12T20:27:16.987Z,62.00
2018-02-12T20:29:44.572Z,62.10
2018-02-12T20:32:12.177Z,62.10
2018-02-12T20:34:40.049Z,62.20
2018-02-12T20:37:10.346Z,62.40
2018-02-12T20:39:37.908Z,62.40
2018-02-12T20:42:07.164Z,62.90
2018-02-12T20:44:34.755Z,62.80
2018-02-12T20:47:15.175Z,62.80
2018-02-12T20:49:49.444Z,62.80
2018-02-12T20:52:17.264Z,62.80
2018-02-12T20:54:46.356Z,63.20
2018-02-12T20:57:21.120Z,63.10
2018-02-12T20:59:49.608Z,63.40
2018-02-12T21:02:17.880Z,64.00
2018-02-12T21:04:46.135Z,63.30
2018-02-12T21:07:13.718Z,63.50
2018-02-12T21:09:41.283Z,63.50
2018-02-12T21:12:08.854Z,73.00
2018-02-12T21:14:36.442Z,69.10
2018-02-12T21:17:04.066Z,66.60
2018-02-12T21:19:32.460Z,65.30
2018-02-12T21:22:00.759Z,60.60
2018-02-12T21:24:29.067Z,60.90
2018-02-12T21:26:57.337Z,60.80
2018-02-12T21:29:25.001Z,61.10
2018-02-12T21:31:52.719Z,61.30
2018-02-12T21:34:20.353Z,61.70
2018-02-12T21:36:47.897Z,62.20
2018-02-12T21:39:16.254Z,62.50
2018-02-12T21:41:44.101Z,62.80
2018-02-12T21:44:12.449Z,63.20
2018-02-12T21:46:40.114Z,63.40
2018-02-12T21:49:07.674Z,63.50
2018-02-12T21:51:35.240Z,63.60
2018-02-12T21:54:02.820Z,64.00
2018-02-12T21:56:30.373Z,64.20
2018-02-12T21:58:58.733Z,64.40
2018-02-12T22:01:26.292Z,64.40
2018-02-12T22:03:54.803Z,65.20
2018-02-12T22:06:22.365Z,64.60
2018-02-12T22:08:50.241Z,64.60
2018-02-12T22:11:17.904Z,64.80
2018-02-12T22:13:46.350Z,64.90
2018-02-12T22:16:13.868Z,64.90
2018-02-12T22:18:42.194Z,65.00
2018-02-12T22:21:09.855Z,64.90
2018-02-12T22:23:37.406Z,65.00
2018-02-12T22:26:04.960Z,65.20
2018-02-12T22:28:32.622Z,65.20
2018-02-12T22:31:00.174Z,65.30
2018-02-12T22:33:28.637Z,65.60
2018-02-12T22:35:56.165Z,65.50
2018-02-12T22:38:25.275Z,65.70
2018-02-12T22:40:53.613Z,65.70
2018-02-12T22:43:21.187Z,65.60
2018-02-12T22:45:48.790Z,65.80
2018-02-12T22:48:16.297Z,65.70
2018-02-12T22:50:43.836Z,66.30
2018-02-12T22:53:11.356Z,65.80
2018-02-12T22:55:38.986Z,65.90
2018-02-12T22:58:07.480Z,66.00
2018-02-12T23:00:35.785Z,66.20
2018-02-12T23:03:04.055Z,66.40
2018-02-12T23:05:31.700Z,66.30
2018-02-12T23:07:59.224Z,66.70
2018-02-12T23:10:27.528Z,66.80
2018-02-12T23:12:55.044Z,66.80
2018-02-12T23:15:29.026Z,66.80
2018-02-12T23:17:57.163Z,66.90
2018-02-12T23:20:24.690Z,66.70
2018-02-12T23:22:52.315Z,66.70
2018-02-12T23:25:19.879Z,66.90
2018-02-12T23:27:47.589Z,67.10
2018-02-12T23:30:15.933Z,67.10
2018-02-12T23:32:43.558Z,67.10
2018-02-12T23:35:11.863Z,67.30
2018-02-12T23:37:40.055Z,67.30
2018-02-12T23:40:07.553Z,67.60
2018-02-12T23:42:35.070Z,67.70
2018-02-12T23:45:02.602Z,67.70
2018-02-12T23:47:30.227Z,67.60
2018-02-12T23:49:57.791Z,67.70
2018-02-12T23:52:25.336Z,67.60
2018-02-12T23:54:52.882Z,67.90
2018-02-12T23:57:20.694Z,67.90
2018-02-12T23:59:49.118Z,67.70
